Bowman Field
KLOU : now visible

Airfield :











YOU CAN JOIN US ON...

 
LOGIN :

Register | Disclaimer

   EN    FR    IT 

 









Legend :    VFR   Marginal VFR   IFR   Intensive IFR   Very Intensive IFR
Visi :
Ceiling :
>= 8 km
>= 3000ft
5 to 8 km
1000 to 3000 ft
1500m to 5 km
500 to 1000 ft
800 to 1500m
200 to 500 ft
< 800m
< 200 ft
Symbols :   Thunderstorms  Fog  Heavy snow  Heavy precipitations  Wind > 20 kt







- Airport Elevation : 546 ft


KLOU - Bowman Field

CURRENT METAR :
  • 162153Z 35005KT 10SM FEW055 SCT070 32/20 A2999 RMK AO2 SLP151 T03220200

EXPIRED METARs :
  • 162053Z 01005KT 10SM FEW060 FEW080 33/21 A2999 RMK AO2 LTG DSNT SE SLP150 60005 T03330206 56018
  • 161953Z 01006KT 10SM CLR 33/20 A3001 RMK AO2 RAB13E27 SLP156 P0005 T03280200

TAF N/A
No reported NOTAMs for that airfield.



MET'MAP, your aeronautical weather chart ! - Copyright ORBIFLY December 2007 - Disclaimer

ORBIFLY MET'MAP TEAM :

Programming & Development : Alexandra Zaïnal
Concept & Development : Baudouin d'Aumeries
Co-Development & Prog : Marc-Olivier Méhu
Technical & hardware support : Manuel Goepfert

Contact : metmap@orbifly.com




SOURCES & CREDITS :

   NOAA       Earth
Advisory